createdAt,value
2022-07-26T00:00:10.532Z,86.10
2022-07-26T00:02:38.703Z,86.20
2022-07-26T00:05:15.877Z,86.10
2022-07-26T00:07:45.684Z,86.20
2022-07-26T00:10:14.638Z,86.20
2022-07-26T00:12:42.986Z,86.10
2022-07-26T00:15:12.716Z,86.30
2022-07-26T00:17:41.226Z,86.60
2022-07-26T00:20:10.605Z,86.80
2022-07-26T00:22:39.735Z,87.00
2022-07-26T00:25:10.827Z,86.90
2022-07-26T00:27:39.254Z,87.20
2022-07-26T00:30:10.949Z,87.50
2022-07-26T00:32:39.682Z,87.80
2022-07-26T00:35:08.758Z,87.90
2022-07-26T00:37:36.900Z,88.20
2022-07-26T00:40:06.783Z,88.50
2022-07-26T00:42:38.909Z,88.90
2022-07-26T00:45:09.565Z,88.90
2022-07-26T00:47:38.491Z,89.30
2022-07-26T00:50:10.981Z,89.60
2022-07-26T00:52:39.600Z,89.60
2022-07-26T00:55:08.772Z,89.90
2022-07-26T00:57:39.565Z,89.70
2022-07-26T01:00:12.723Z,89.90
2022-07-26T01:02:41.373Z,90.20
2022-07-26T01:05:10.680Z,90.30
2022-07-26T01:07:40.808Z,89.80
2022-07-26T01:10:13.183Z,90.40
2022-07-26T01:12:44.214Z,90.30
2022-07-26T01:15:15.857Z,90.20
2022-07-26T01:17:45.339Z,90.10
2022-07-26T01:20:15.001Z,90.20
2022-07-26T01:22:44.409Z,90.20
2022-07-26T01:25:12.605Z,90.30
2022-07-26T01:27:41.137Z,90.40
2022-07-26T01:30:12.499Z,90.60
2022-07-26T01:32:41.427Z,90.50
2022-07-26T01:35:11.401Z,90.40
2022-07-26T01:37:39.429Z,90.50
2022-07-26T01:40:11.688Z,90.70
2022-07-26T01:42:41.080Z,90.60
2022-07-26T01:45:10.757Z,90.60
2022-07-26T01:47:39.385Z,90.60
2022-07-26T01:50:10.298Z,90.70
2022-07-26T01:52:39.290Z,90.60
2022-07-26T01:55:10.114Z,90.80
2022-07-26T01:57:38.256Z,90.80
2022-07-26T02:00:08.473Z,91.00
2022-07-26T02:02:36.702Z,91.00
2022-07-26T02:05:05.594Z,91.00
2022-07-26T02:07:42.563Z,91.20
2022-07-26T02:10:15.222Z,91.20
2022-07-26T02:12:44.042Z,91.10
2022-07-26T02:15:15.242Z,91.40
2022-07-26T02:17:43.566Z,91.50
2022-07-26T02:20:12.907Z,91.40
2022-07-26T02:22:40.942Z,91.60
2022-07-26T02:25:09.769Z,91.60
2022-07-26T02:27:39.115Z,91.60
2022-07-26T02:30:08.761Z,91.80
2022-07-26T02:32:36.801Z,91.80
2022-07-26T02:35:05.575Z,91.80
2022-07-26T02:37:36.604Z,91.90
2022-07-26T02:40:18.880Z,92.00
2022-07-26T02:42:48.809Z,91.90
2022-07-26T02:45:16.890Z,92.10
2022-07-26T02:47:49.502Z,92.00
2022-07-26T02:50:19.212Z,92.10
2022-07-26T02:52:48.788Z,92.20
2022-07-26T02:55:18.746Z,92.20
2022-07-26T02:57:48.361Z,92.30
2022-07-26T03:00:20.083Z,92.20
2022-07-26T03:02:49.107Z,92.30
2022-07-26T03:05:18.482Z,92.50
2022-07-26T03:07:47.064Z,92.50
2022-07-26T03:10:16.223Z,92.90
2022-07-26T03:12:44.729Z,92.80
2022-07-26T03:15:14.260Z,92.80
2022-07-26T03:17:42.432Z,92.80
2022-07-26T03:20:13.029Z,93.00
2022-07-26T03:22:41.172Z,93.00
2022-07-26T03:25:10.071Z,93.30
2022-07-26T03:27:38.303Z,93.30
2022-07-26T03:30:08.109Z,93.30
2022-07-26T03:32:37.633Z,93.30
2022-07-26T03:35:06.718Z,93.30
2022-07-26T03:37:45.422Z,93.20
2022-07-26T03:40:15.959Z,93.40
2022-07-26T03:42:44.331Z,93.50
2022-07-26T03:45:14.445Z,93.60
2022-07-26T03:47:45.212Z,93.70
2022-07-26T03:50:13.889Z,93.70
2022-07-26T03:52:42.265Z,93.80
2022-07-26T03:55:28.728Z,93.70
2022-07-26T03:57:56.922Z,94.30
2022-07-26T04:00:24.884Z,94.10
2022-07-26T04:02:54.293Z,94.10
2022-07-26T04:05:23.789Z,94.40
2022-07-26T04:07:54.554Z,94.50
2022-07-26T04:10:24.708Z,94.70
2022-07-26T04:12:52.816Z,94.60
2022-07-26T04:15:21.447Z,94.80
2022-07-26T04:17:49.830Z,95.10
2022-07-26T04:20:19.556Z,94.90
2022-07-26T04:22:47.624Z,95.00
2022-07-26T04:25:15.758Z,95.10
2022-07-26T04:27:43.751Z,95.20
2022-07-26T04:30:15.418Z,95.70
2022-07-26T04:32:45.830Z,95.70
2022-07-26T04:35:16.099Z,95.80
2022-07-26T04:37:47.414Z,96.20
2022-07-26T04:40:21.222Z,96.10
2022-07-26T04:42:50.742Z,96.40
2022-07-26T04:45:18.825Z,96.40
2022-07-26T04:47:50.252Z,96.60
2022-07-26T04:50:21.186Z,97.10
2022-07-26T04:52:52.383Z,97.20
2022-07-26T04:55:20.775Z,97.30
2022-07-26T04:57:49.744Z,97.20
2022-07-26T05:00:24.174Z,98.10
2022-07-26T05:02:54.961Z,98.30
2022-07-26T05:05:24.230Z,98.40
2022-07-26T05:07:55.979Z,99.40
2022-07-26T05:10:31.471Z,99.10
2022-07-26T05:12:59.705Z,99.20
2022-07-26T05:15:35.431Z,99.70
2022-07-26T05:18:07.072Z,99.80
2022-07-26T05:20:37.475Z,99.90
2022-07-26T05:23:06.921Z,99.90
2022-07-26T05:25:35.231Z,99.90
2022-07-26T05:28:03.380Z,99.90
2022-07-26T05:30:31.605Z,99.90
2022-07-26T05:32:59.661Z,99.90
2022-07-26T05:35:27.640Z,99.90
2022-07-26T05:37:56.367Z,99.90
2022-07-26T05:40:25.704Z,99.90
2022-07-26T05:42:53.690Z,99.90
2022-07-26T05:45:21.851Z,99.90
2022-07-26T05:47:51.605Z,99.90
2022-07-26T05:50:20.724Z,99.90
2022-07-26T05:52:49.055Z,99.90
2022-07-26T05:55:17.026Z,99.90
2022-07-26T05:57:49.719Z,99.90
2022-07-26T06:00:20.652Z,99.90
2022-07-26T06:02:48.727Z,99.90
2022-07-26T06:05:16.802Z,99.90
2022-07-26T06:07:44.994Z,99.90
2022-07-26T06:10:13.405Z,99.90
2022-07-26T06:12:42.305Z,99.90
2022-07-26T06:15:14.864Z,99.90
2022-07-26T06:17:44.452Z,99.90
2022-07-26T06:20:13.190Z,99.90
2022-07-26T06:22:41.174Z,99.90
2022-07-26T06:25:10.288Z,99.90
2022-07-26T06:27:38.309Z,99.90
2022-07-26T06:30:08.950Z,99.90
2022-07-26T06:32:38.335Z,99.90
2022-07-26T06:35:07.350Z,99.90
2022-07-26T06:37:38.671Z,99.90
2022-07-26T06:40:09.827Z,99.90
2022-07-26T06:42:38.262Z,99.90
2022-07-26T06:45:08.009Z,99.90
2022-07-26T06:47:37.652Z,99.90
2022-07-26T06:50:06.919Z,99.90
2022-07-26T06:52:34.918Z,99.90
2022-07-26T06:55:04.234Z,99.90
2022-07-26T06:57:32.636Z,99.90
2022-07-26T07:00:00.645Z,99.90
2022-07-26T07:02:28.740Z,99.90
2022-07-26T07:04:58.464Z,99.90
2022-07-26T07:07:26.762Z,99.90
2022-07-26T07:09:57.017Z,99.90
2022-07-26T07:12:25.175Z,99.90
2022-07-26T07:14:53.170Z,99.90
2022-07-26T07:17:22.220Z,99.90
2022-07-26T07:19:50.283Z,99.90
2022-07-26T07:22:21.980Z,99.90
2022-07-26T07:24:49.970Z,99.90
2022-07-26T07:27:18.435Z,99.90
2022-07-26T07:29:46.525Z,99.90
2022-07-26T07:32:17.991Z,99.90
2022-07-26T07:34:47.655Z,99.90
2022-07-26T07:37:15.997Z,99.90
2022-07-26T07:39:48.930Z,99.90
2022-07-26T07:42:19.427Z,99.90
2022-07-26T07:44:47.826Z,99.90
2022-07-26T07:47:15.856Z,99.90
2022-07-26T07:49:44.133Z,99.90
2022-07-26T07:52:12.230Z,99.90
2022-07-26T07:54:40.422Z,99.90
2022-07-26T07:57:11.653Z,99.90
2022-07-26T07:59:41.713Z,99.90
2022-07-26T08:02:12.649Z,99.90
2022-07-26T08:04:40.733Z,99.90
2022-07-26T08:07:08.817Z,99.90
2022-07-26T08:09:36.809Z,99.90
2022-07-26T08:12:12.779Z,99.90
2022-07-26T08:14:41.425Z,99.90
2022-07-26T08:17:09.617Z,99.90
2022-07-26T08:19:41.825Z,99.90
2022-07-26T08:22:10.949Z,99.90
2022-07-26T08:24:39.428Z,99.90
2022-07-26T08:27:07.584Z,99.90
2022-07-26T08:29:37.122Z,99.90
2022-07-26T08:32:07.988Z,99.90
2022-07-26T08:34:37.807Z,99.90
2022-07-26T08:37:17.241Z,99.90
2022-07-26T08:39:45.953Z,99.90
2022-07-26T08:42:15.943Z,99.90
2022-07-26T08:44:47.646Z,99.90
2022-07-26T08:47:18.147Z,99.90
2022-07-26T08:50:03.806Z,99.90
2022-07-26T08:52:32.135Z,99.90
2022-07-26T08:55:00.171Z,99.90
2022-07-26T08:57:28.144Z,99.90
2022-07-26T09:00:20.742Z,99.90
2022-07-26T09:02:49.767Z,99.90
2022-07-26T09:05:20.699Z,99.90
2022-07-26T09:07:48.794Z,99.90
2022-07-26T09:10:17.244Z,99.90
2022-07-26T09:12:45.917Z,99.90
2022-07-26T09:15:23.326Z,99.90
2022-07-26T09:17:53.766Z,99.90
2022-07-26T09:20:26.014Z,99.90
2022-07-26T09:23:06.237Z,99.90
2022-07-26T09:25:37.348Z,99.90
2022-07-26T09:28:21.897Z,99.90
2022-07-26T09:30:57.329Z,99.90
2022-07-26T09:33:27.200Z,99.90
2022-07-26T09:36:04.901Z,99.90
2022-07-26T09:38:41.812Z,99.90
2022-07-26T09:41:20.855Z,99.90
2022-07-26T09:43:53.715Z,99.90
2022-07-26T09:46:26.044Z,99.90
2022-07-26T09:49:11.616Z,99.90
2022-07-26T09:51:43.801Z,99.90
2022-07-26T09:54:18.178Z,99.90
2022-07-26T09:56:49.261Z,99.90
2022-07-26T09:59:19.875Z,99.90
2022-07-26T10:01:51.250Z,99.90
2022-07-26T10:04:20.657Z,99.90
2022-07-26T10:06:49.459Z,99.90
2022-07-26T10:09:18.717Z,99.90
2022-07-26T10:11:55.901Z,99.90
2022-07-26T10:14:42.742Z,99.90
2022-07-26T10:17:49.295Z,99.90
2022-07-26T10:20:48.199Z,99.90
2022-07-26T10:23:40.911Z,99.90
2022-07-26T10:26:12.567Z,99.90
2022-07-26T10:28:41.944Z,99.90
2022-07-26T10:31:35.530Z,99.90
2022-07-26T10:34:05.008Z,99.90
2022-07-26T10:36:38.723Z,99.90
2022-07-26T10:39:14.143Z,99.90
2022-07-26T10:41:46.926Z,99.90
2022-07-26T10:44:25.891Z,99.90
2022-07-26T10:47:05.716Z,99.90
2022-07-26T10:49:37.350Z,99.90
2022-07-26T10:52:13.119Z,99.90
2022-07-26T10:55:08.016Z,99.90
2022-07-26T10:57:39.012Z,99.90
2022-07-26T11:00:14.811Z,99.90
2022-07-26T11:02:44.637Z,99.90
2022-07-26T11:05:19.526Z,99.90
2022-07-26T11:08:01.385Z,99.90
2022-07-26T11:10:32.854Z,99.90
2022-07-26T11:13:18.752Z,99.90
2022-07-26T11:15:51.482Z,99.90
2022-07-26T11:18:27.672Z,99.90
2022-07-26T11:21:08.611Z,99.90
2022-07-26T11:23:39.066Z,99.90
2022-07-26T11:26:17.365Z,99.90
2022-07-26T11:28:58.267Z,99.90
2022-07-26T11:31:55.487Z,99.90
2022-07-26T11:34:30.662Z,99.90
2022-07-26T11:37:01.890Z,99.90
2022-07-26T11:39:32.734Z,99.90
2022-07-26T11:42:03.302Z,99.90
2022-07-26T11:44:32.248Z,99.90
2022-07-26T11:47:00.881Z,99.90
2022-07-26T11:52:25.348Z,99.90
2022-07-26T11:54:55.415Z,99.90
2022-07-26T11:57:29.275Z,99.90
2022-07-26T11:59:57.559Z,99.90
2022-07-26T12:02:25.744Z,99.90
2022-07-26T12:05:15.060Z,99.90
2022-07-26T12:07:57.164Z,99.90
2022-07-26T12:10:25.772Z,99.90
2022-07-26T12:13:09.095Z,99.90
2022-07-26T12:15:48.868Z,99.90
2022-07-26T12:18:25.565Z,99.90
2022-07-26T12:21:05.589Z,99.90
2022-07-26T12:23:49.285Z,99.90
2022-07-26T12:26:22.826Z,99.90
2022-07-26T12:28:51.080Z,99.90
2022-07-26T12:31:27.736Z,99.90
2022-07-26T12:33:56.314Z,99.90
2022-07-26T12:36:27.471Z,99.90
2022-07-26T12:38:59.195Z,99.90
2022-07-26T12:41:35.508Z,99.90
2022-07-26T12:44:04.811Z,99.90
2022-07-26T12:46:34.401Z,99.90
2022-07-26T12:49:02.820Z,99.90
2022-07-26T12:51:31.112Z,99.90
2022-07-26T12:54:00.799Z,99.90
2022-07-26T12:56:28.873Z,99.90
2022-07-26T12:59:01.047Z,99.90
2022-07-26T13:01:29.909Z,99.90
2022-07-26T13:03:58.200Z,99.90
2022-07-26T13:06:26.345Z,99.90
2022-07-26T13:08:54.329Z,99.90
2022-07-26T13:11:23.907Z,99.90
2022-07-26T13:13:52.157Z,99.90
2022-07-26T13:16:20.239Z,99.90
2022-07-26T13:18:48.529Z,99.90
2022-07-26T13:21:16.601Z,99.90
2022-07-26T13:23:44.657Z,99.90
2022-07-26T13:26:12.706Z,99.90
2022-07-26T13:28:42.083Z,99.90
2022-07-26T13:31:10.739Z,99.90
2022-07-26T13:33:39.676Z,99.90
2022-07-26T13:36:08.013Z,99.90
2022-07-26T13:38:36.340Z,99.90
2022-07-26T13:41:05.108Z,99.90
2022-07-26T13:43:33.341Z,99.90
2022-07-26T13:46:02.913Z,99.90
2022-07-26T13:48:30.973Z,99.90
2022-07-26T13:50:59.071Z,99.90
2022-07-26T13:53:27.239Z,99.90
2022-07-26T13:55:55.223Z,99.90
2022-07-26T13:58:23.325Z,99.90
2022-07-26T14:00:51.637Z,99.90
2022-07-26T14:03:21.408Z,99.90
2022-07-26T14:05:49.441Z,99.90
2022-07-26T14:08:17.658Z,99.90
2022-07-26T14:10:45.799Z,99.90
2022-07-26T14:13:14.070Z,99.90
2022-07-26T14:15:43.537Z,99.90
2022-07-26T14:18:11.578Z,99.90
2022-07-26T14:20:41.084Z,99.90
2022-07-26T14:23:09.212Z,99.90
2022-07-26T14:25:37.527Z,99.90
2022-07-26T14:28:13.380Z,99.90
2022-07-26T14:30:41.515Z,99.90
2022-07-26T14:33:10.323Z,99.90
2022-07-26T14:35:41.643Z,99.90
2022-07-26T14:38:09.600Z,99.90
2022-07-26T14:40:38.471Z,99.90
2022-07-26T14:43:06.970Z,99.90
2022-07-26T14:45:34.980Z,99.90
2022-07-26T14:48:03.003Z,99.90
2022-07-26T14:50:47.058Z,99.90
2022-07-26T14:53:20.974Z,99.90
2022-07-26T14:55:48.961Z,99.90
2022-07-26T14:58:16.910Z,99.90
2022-07-26T15:00:45.559Z,99.90
2022-07-26T15:03:13.829Z,99.90
2022-07-26T15:05:41.945Z,99.90
2022-07-26T15:08:10.495Z,99.90
2022-07-26T15:10:39.821Z,99.90
2022-07-26T15:13:09.066Z,99.90
2022-07-26T15:15:37.305Z,99.90
2022-07-26T15:18:05.593Z,99.90
2022-07-26T15:20:33.668Z,99.90
2022-07-26T15:23:02.436Z,99.90
2022-07-26T15:25:30.427Z,99.90
2022-07-26T15:27:59.909Z,99.90
2022-07-26T15:30:28.203Z,99.90
2022-07-26T15:32:57.759Z,99.90
2022-07-26T15:35:26.310Z,99.90
2022-07-26T15:37:54.274Z,99.90
2022-07-26T15:40:23.039Z,99.90
2022-07-26T15:42:52.877Z,99.90
2022-07-26T15:45:23.339Z,99.90
2022-07-26T15:47:56.260Z,99.90
2022-07-26T15:50:26.459Z,99.90
2022-07-26T15:52:54.711Z,99.90
2022-07-26T15:55:22.710Z,99.90
2022-07-26T15:57:50.749Z,99.90
2022-07-26T16:00:19.471Z,99.90
2022-07-26T16:02:48.884Z,99.90
2022-07-26T16:05:17.339Z,99.90
2022-07-26T16:07:46.369Z,99.90
2022-07-26T16:10:16.245Z,99.90
2022-07-26T16:12:44.372Z,99.90
2022-07-26T16:15:13.625Z,99.90
2022-07-26T16:17:41.885Z,99.90
2022-07-26T16:20:11.955Z,99.90
2022-07-26T16:22:41.695Z,99.90
2022-07-26T16:25:13.002Z,99.90
2022-07-26T16:27:42.696Z,99.90
2022-07-26T16:30:12.567Z,99.90
2022-07-26T16:32:40.729Z,99.90
2022-07-26T16:35:11.402Z,99.90
2022-07-26T16:37:39.877Z,99.90
2022-07-26T16:40:10.204Z,99.90
2022-07-26T16:42:38.191Z,99.90
2022-07-26T16:45:08.677Z,99.90
2022-07-26T16:47:36.681Z,99.90
2022-07-26T16:50:05.102Z,99.90
2022-07-26T16:52:34.458Z,99.90
2022-07-26T16:55:10.469Z,99.90
2022-07-26T16:57:39.174Z,99.90
2022-07-26T17:00:10.775Z,99.90
2022-07-26T17:02:39.998Z,99.90
2022-07-26T17:05:09.758Z,99.90
2022-07-26T17:07:39.076Z,99.90
2022-07-26T17:10:10.849Z,99.90
2022-07-26T17:12:39.346Z,99.90
2022-07-26T17:15:10.846Z,99.90
2022-07-26T17:17:38.877Z,99.90
2022-07-26T17:20:09.129Z,99.90
2022-07-26T17:22:38.695Z,99.90
2022-07-26T17:25:11.410Z,99.90
2022-07-26T17:27:39.453Z,99.90
2022-07-26T17:30:09.341Z,99.90
2022-07-26T17:32:37.917Z,99.90
2022-07-26T17:35:07.482Z,99.90
2022-07-26T17:37:35.922Z,99.90
2022-07-26T17:40:08.186Z,99.90
2022-07-26T17:42:37.348Z,99.90
2022-07-26T17:45:08.076Z,99.90
2022-07-26T17:47:36.058Z,99.90
2022-07-26T17:50:35.284Z,99.90
2022-07-26T17:52:55.246Z,99.90
2022-07-26T17:55:25.348Z,99.90
2022-07-26T17:57:53.557Z,99.90
2022-07-26T18:00:23.937Z,99.90
2022-07-26T18:02:56.640Z,99.90
2022-07-26T18:05:32.032Z,99.90
2022-07-26T18:08:05.564Z,99.90
2022-07-26T18:10:34.975Z,99.90
2022-07-26T18:13:02.994Z,99.90
2022-07-26T18:15:31.061Z,99.90
2022-07-26T18:17:59.144Z,99.90
2022-07-26T18:20:27.296Z,99.90
2022-07-26T18:22:55.478Z,99.90
2022-07-26T18:25:23.727Z,99.90
2022-07-26T18:27:53.767Z,99.90
2022-07-26T18:30:22.371Z,99.90
2022-07-26T18:32:50.467Z,99.90
2022-07-26T18:35:18.698Z,99.90
2022-07-26T18:37:47.880Z,99.90
2022-07-26T18:40:15.871Z,99.90
2022-07-26T18:42:43.831Z,99.90
2022-07-26T18:45:13.439Z,99.90
2022-07-26T18:47:42.291Z,99.90
2022-07-26T18:50:12.072Z,99.90
2022-07-26T18:52:43.449Z,99.90
2022-07-26T18:55:14.970Z,99.90
2022-07-26T18:57:45.202Z,99.90
2022-07-26T19:00:19.850Z,99.90
2022-07-26T19:02:48.640Z,99.90
2022-07-26T19:05:17.181Z,99.90
2022-07-26T19:07:45.515Z,99.90
2022-07-26T19:10:14.195Z,99.90
2022-07-26T19:12:43.603Z,99.90
2022-07-26T19:15:13.719Z,99.90
2022-07-26T19:17:42.270Z,99.90
2022-07-26T19:20:12.325Z,99.90
2022-07-26T19:22:41.370Z,99.90
2022-07-26T19:25:10.755Z,99.90
2022-07-26T19:27:39.526Z,99.90
2022-07-26T19:30:10.606Z,99.90
2022-07-26T19:32:40.236Z,99.90
2022-07-26T19:35:10.232Z,99.90
2022-07-26T19:37:38.317Z,99.90
2022-07-26T19:40:08.198Z,99.90
2022-07-26T19:42:36.186Z,99.90
2022-07-26T19:45:04.738Z,99.90
2022-07-26T19:47:35.476Z,99.90
2022-07-26T19:50:07.803Z,99.90
2022-07-26T19:52:36.757Z,99.90
2022-07-26T19:55:05.547Z,99.90
2022-07-26T19:57:33.581Z,99.90
2022-07-26T20:00:03.497Z,99.90
2022-07-26T20:02:31.640Z,99.90
2022-07-26T20:05:00.558Z,99.90
2022-07-26T20:07:29.994Z,99.90
2022-07-26T20:09:58.019Z,99.90
2022-07-26T20:12:26.111Z,99.90
2022-07-26T20:14:54.356Z,99.90
2022-07-26T20:17:23.292Z,99.90
2022-07-26T20:19:51.540Z,99.90
2022-07-26T20:22:19.827Z,99.90
2022-07-26T20:24:54.705Z,99.90
2022-07-26T20:27:23.171Z,99.90
2022-07-26T20:29:51.274Z,99.90
2022-07-26T20:32:19.482Z,99.90
2022-07-26T20:34:47.510Z,99.90
2022-07-26T20:37:15.539Z,99.90
2022-07-26T20:39:44.090Z,99.90
2022-07-26T20:42:21.261Z,99.90
2022-07-26T20:44:50.146Z,99.90
2022-07-26T20:47:18.104Z,99.90
2022-07-26T20:49:46.311Z,99.90
2022-07-26T20:52:14.257Z,99.90
2022-07-26T20:54:42.343Z,99.90
2022-07-26T20:57:10.332Z,99.90
2022-07-26T20:59:39.722Z,99.90
2022-07-26T21:02:08.020Z,99.90
2022-07-26T21:04:36.003Z,99.90
2022-07-26T21:07:04.038Z,99.90
2022-07-26T21:09:32.006Z,99.90
2022-07-26T21:11:59.999Z,99.90
2022-07-26T21:14:28.123Z,99.90
2022-07-26T21:17:00.497Z,99.90
2022-07-26T21:19:29.347Z,99.90
2022-07-26T21:21:57.676Z,99.90
2022-07-26T21:24:25.635Z,99.90
2022-07-26T21:26:55.092Z,99.90
2022-07-26T21:29:23.209Z,99.90
2022-07-26T21:31:51.170Z,99.90
2022-07-26T21:34:21.258Z,99.90
2022-07-26T21:36:49.220Z,99.90
2022-07-26T21:39:17.324Z,99.90
2022-07-26T21:41:48.769Z,99.90
2022-07-26T21:44:16.909Z,99.90
2022-07-26T21:46:44.917Z,99.90
2022-07-26T21:49:13.404Z,99.80
2022-07-26T21:51:43.137Z,99.70
2022-07-26T21:54:11.129Z,99.70
2022-07-26T21:56:39.103Z,99.70
2022-07-26T21:59:07.062Z,99.70
2022-07-26T22:01:35.142Z,99.60
2022-07-26T22:04:03.084Z,99.60
2022-07-26T22:06:31.050Z,99.50
2022-07-26T22:09:00.433Z,99.50
2022-07-26T22:11:28.386Z,99.50
2022-07-26T22:13:56.455Z,99.40
2022-07-26T22:16:24.466Z,99.60
2022-07-26T22:18:52.507Z,99.70
2022-07-26T22:21:20.565Z,99.80
2022-07-26T22:23:49.635Z,99.90
2022-07-26T22:26:20.978Z,99.90
2022-07-26T22:28:48.982Z,99.90
2022-07-26T22:31:16.962Z,99.90
2022-07-26T22:33:44.939Z,99.90
2022-07-26T22:36:12.881Z,99.90
2022-07-26T22:38:41.060Z,99.90
2022-07-26T22:41:08.968Z,99.90
2022-07-26T22:43:38.511Z,99.90
2022-07-26T22:46:06.496Z,99.90
2022-07-26T22:48:38.178Z,99.90
2022-07-26T22:51:06.716Z,99.90
2022-07-26T22:53:34.713Z,99.90
2022-07-26T22:56:02.676Z,99.90
2022-07-26T22:58:30.646Z,99.90
2022-07-26T23:01:00.206Z,99.90
2022-07-26T23:03:28.582Z,99.90
2022-07-26T23:05:57.756Z,99.90
2022-07-26T23:08:46.633Z,99.90
2022-07-26T23:11:14.913Z,99.90
2022-07-26T23:13:42.830Z,99.90
2022-07-26T23:16:12.207Z,99.90
2022-07-26T23:18:40.188Z,99.90
2022-07-26T23:21:08.117Z,99.90
2022-07-26T23:23:36.077Z,99.90
2022-07-26T23:26:04.097Z,99.90
2022-07-26T23:28:36.690Z,99.90
2022-07-26T23:31:12.334Z,99.90
2022-07-26T23:33:52.633Z,99.90
2022-07-26T23:36:24.306Z,99.90
2022-07-26T23:38:52.928Z,99.90
2022-07-26T23:41:21.325Z,99.90
2022-07-26T23:43:49.534Z,99.90
2022-07-26T23:46:19.201Z,99.90
2022-07-26T23:48:47.832Z,99.90
2022-07-26T23:51:16.672Z,99.90
2022-07-26T23:53:44.671Z,99.90
2022-07-26T23:56:13.218Z,99.90
2022-07-26T23:58:41.269Z,99.90
